Viking Destiny — V7HR6 — position and weather

sailwx.info

Track history (hours):
 
Tides and Currents Weather Stations Pressure Air Temp Water Temp Dewpoint Dewpoint Depression Visibility Wind Speed Wind Dir Waves Ship Positions

Viking Destiny

Last reported at 2018-Feb-15 20:05 UTC. Time now 2018-Feb-24 10:30 UTC.
Position N 35°58' W 005°34'.
Warning: this ship's position is 8 days out of date.

Length 199 m; draft 9.2 m.

Type: Cargo ship. MMSI: 538007385.

Date/timePositionNaut miles runAvg speedWind from/ knotsBaromVisibWave heightAir tempDewpointWater temp
2018-Feb-15 20:05N 35°58' W 005°34'117.0
2018-Feb-15 20:00N 35°58' W 005°33'916.8
2018-Feb-15 19:30N 36°01' W 005°23'816.8
2018-Feb-15 19:00N 36°02' W 005°13'21217.4
2018-Feb-15 06:47N 37°14' W 001°04'517.6
2018-Feb-15 06:30N 37°17' W 000°59'917.8
2018-Feb-15 06:00N 37°23' W 000°51'917.5
2018-Feb-15 05:30N 37°29' W 000°43'917.1
2018-Feb-15 05:00N 37°34' W 000°34'816.7
2018-Feb-15 04:30N 37°41' W 000°28'816.7
2018-Feb-15 04:00N 37°48' W 000°22'816.9
2018-Feb-15 03:30N 37°55' W 000°16'20417.6
2018-Feb-14 15:52N 40°53' E 001°54'617.7
2018-Feb-14 15:31N 40°59' E 001°58'917.9
2018-Feb-14 15:00N 41°07' E 002°03'917.2
2018-Feb-14 14:30N 41°14' E 002°09'612.4
2018-Feb-14 14:00N 41°20' E 002°10'1 1.8
2018-Feb-14 13:30N 41°20' E 002°09'0 0.0
2018-Feb-14 13:00N 41°20' E 002°09'0 0.0
2018-Feb-14 12:30N 41°20' E 002°09'0 0.0
2018-Feb-14 12:00N 41°20' E 002°09'0 0.0
2018-Feb-14 11:30N 41°20' E 002°09'0 0.0
2018-Feb-14 11:00N 41°20' E 002°09'0 0.0
2018-Feb-14 10:30N 41°20' E 002°09'0 0.0
2018-Feb-14 10:00N 41°20' E 002°09'0 0.0
2018-Feb-14 09:30N 41°20' E 002°09'0 0.0
2018-Feb-14 09:00N 41°20' E 002°09'0 0.0
2018-Feb-14 08:30N 41°20' E 002°09'0 0.0
2018-Feb-14 08:00N 41°20' E 002°09'0 0.0
2018-Feb-14 07:30N 41°20' E 002°09'0 0.0
2018-Feb-14 07:00N 41°20' E 002°09'0 0.0
2018-Feb-14 06:30N 41°20' E 002°09'0 0.0
2018-Feb-14 06:00N 41°20' E 002°09'0 0.0
2018-Feb-14 05:30N 41°20' E 002°09'0 0.0
2018-Feb-14 05:00N 41°20' E 002°09'0 0.0
2018-Feb-14 04:30N 41°20' E 002°09'0 0.0
2018-Feb-14 04:00N 41°20' E 002°09'0 0.0
2018-Feb-14 03:30N 41°20' E 002°09'0 0.0
2018-Feb-14 03:00N 41°20' E 002°09'0 0.0
2018-Feb-14 02:30N 41°20' E 002°09'0 0.0
2018-Feb-14 02:00N 41°20' E 002°09'0 0.0
2018-Feb-14 01:30N 41°20' E 002°09'0 0.0
2018-Feb-14 01:00N 41°20' E 002°09'0 0.0
2018-Feb-14 00:30N 41°20' E 002°09'0 0.0
2018-Feb-14 00:00N 41°20' E 002°09'0 0.0
2018-Feb-13 23:30N 41°20' E 002°09'0 0.0
2018-Feb-13 23:00N 41°20' E 002°09'1 1.6
2018-Feb-13 22:30N 41°21' E 002°10'3 5.9
2018-Feb-13 22:00N 41°18' E 002°11'4 8.9
2018-Feb-13 21:30N 41°15' E 002°15'612.8
2018-Feb-13 21:00N 41°12' E 002°23'32412.5
2018-Feb-12 19:12N 38°36' E 008°33'312.8
2018-Feb-12 19:00N 38°35' E 008°36'27716.2
2018-Feb-12 01:55N 36°32' E 013°49'818.3
2018-Feb-12 01:30N 36°29' E 013°58'918.2
2018-Feb-12 01:00N 36°26' E 014°08'918.4
2018-Feb-12 00:30N 36°22' E 014°19'918.3
2018-Feb-12 00:00N 36°19' E 014°29'918.2
2018-Feb-11 23:30N 36°16' E 014°40'918.1
2018-Feb-11 23:00N 36°13' E 014°51'64215.1
2018-Feb-10 04:22N 33°00' E 027°14'12519.4
2018-Feb-09 21:54N 32°23' E 029°36'15218.1
2018-Feb-09 13:30N 31°23' E 032°21'25 9.9
2018-Feb-09 11:01N 30°59' E 032°19'  
Track history (hours):
 
Tides and Currents Weather Stations Pressure Air Temp Water Temp Dewpoint Dewpoint Depression Visibility Wind Speed Wind Dir Waves Ship Positions

Viking Destiny

Last reported at 2018-Feb-15 20:05 UTC. Time now 2018-Feb-24 10:30 UTC.
Position N 35°58' W 005°34'.
Warning: this ship's position is 8 days out of date.

Length 199 m; draft 9.2 m.

Type: Cargo ship. MMSI: 538007385.

Date/timePositionNaut miles runAvg speedWind from/ knotsBaromVisibWave heightAir tempDewpointWater temp
2018-Feb-15 20:05N 35°58' W 005°34'117.0
2018-Feb-15 20:00N 35°58' W 005°33'916.8
2018-Feb-15 19:30N 36°01' W 005°23'816.8
2018-Feb-15 19:00N 36°02' W 005°13'21217.4
2018-Feb-15 06:47N 37°14' W 001°04'517.6
2018-Feb-15 06:30N 37°17' W 000°59'917.8
2018-Feb-15 06:00N 37°23' W 000°51'917.5
2018-Feb-15 05:30N 37°29' W 000°43'917.1
2018-Feb-15 05:00N 37°34' W 000°34'816.7
2018-Feb-15 04:30N 37°41' W 000°28'816.7
2018-Feb-15 04:00N 37°48' W 000°22'816.9
2018-Feb-15 03:30N 37°55' W 000°16'20417.6
2018-Feb-14 15:52N 40°53' E 001°54'617.7
2018-Feb-14 15:31N 40°59' E 001°58'917.9
2018-Feb-14 15:00N 41°07' E 002°03'917.2
2018-Feb-14 14:30N 41°14' E 002°09'612.4
2018-Feb-14 14:00N 41°20' E 002°10'1 1.8
2018-Feb-14 13:30N 41°20' E 002°09'0 0.0
2018-Feb-14 13:00N 41°20' E 002°09'0 0.0
2018-Feb-14 12:30N 41°20' E 002°09'0 0.0
2018-Feb-14 12:00N 41°20' E 002°09'0 0.0
2018-Feb-14 11:30N 41°20' E 002°09'0 0.0
2018-Feb-14 11:00N 41°20' E 002°09'0 0.0
2018-Feb-14 10:30N 41°20' E 002°09'0 0.0
2018-Feb-14 10:00N 41°20' E 002°09'0 0.0
2018-Feb-14 09:30N 41°20' E 002°09'0 0.0
2018-Feb-14 09:00N 41°20' E 002°09'0 0.0
2018-Feb-14 08:30N 41°20' E 002°09'0 0.0
2018-Feb-14 08:00N 41°20' E 002°09'0 0.0
2018-Feb-14 07:30N 41°20' E 002°09'0 0.0
2018-Feb-14 07:00N 41°20' E 002°09'0 0.0
2018-Feb-14 06:30N 41°20' E 002°09'0 0.0
2018-Feb-14 06:00N 41°20' E 002°09'0 0.0
2018-Feb-14 05:30N 41°20' E 002°09'0 0.0
2018-Feb-14 05:00N 41°20' E 002°09'0 0.0
2018-Feb-14 04:30N 41°20' E 002°09'0 0.0
2018-Feb-14 04:00N 41°20' E 002°09'0 0.0
2018-Feb-14 03:30N 41°20' E 002°09'0 0.0
2018-Feb-14 03:00N 41°20' E 002°09'0 0.0
2018-Feb-14 02:30N 41°20' E 002°09'0 0.0
2018-Feb-14 02:00N 41°20' E 002°09'0 0.0
2018-Feb-14 01:30N 41°20' E 002°09'0 0.0
2018-Feb-14 01:00N 41°20' E 002°09'0 0.0
2018-Feb-14 00:30N 41°20' E 002°09'0 0.0
2018-Feb-14 00:00N 41°20' E 002°09'0 0.0
2018-Feb-13 23:30N 41°20' E 002°09'0 0.0
2018-Feb-13 23:00N 41°20' E 002°09'1 1.6
2018-Feb-13 22:30N 41°21' E 002°10'3 5.9
2018-Feb-13 22:00N 41°18' E 002°11'4 8.9
2018-Feb-13 21:30N 41°15' E 002°15'612.8
2018-Feb-13 21:00N 41°12' E 002°23'32412.5
2018-Feb-12 19:12N 38°36' E 008°33'312.8
2018-Feb-12 19:00N 38°35' E 008°36'27716.2
2018-Feb-12 01:55N 36°32' E 013°49'818.3
2018-Feb-12 01:30N 36°29' E 013°58'918.2
2018-Feb-12 01:00N 36°26' E 014°08'918.4
2018-Feb-12 00:30N 36°22' E 014°19'918.3
2018-Feb-12 00:00N 36°19' E 014°29'918.2
2018-Feb-11 23:30N 36°16' E 014°40'918.1
2018-Feb-11 23:00N 36°13' E 014°51'64215.1
2018-Feb-10 04:22N 33°00' E 027°14'12519.4
2018-Feb-09 21:54N 32°23' E 029°36'15218.1
2018-Feb-09 13:30N 31°23' E 032°21'25 9.9
2018-Feb-09 11:01N 30°59' E 032°19'  

Dump ship's entire track history